createdAt,value
2018-10-11T00:01:36.918Z,15.65
2018-10-11T00:04:06.286Z,15.82
2018-10-11T00:06:34.981Z,15.82
2018-10-11T00:09:04.025Z,15.82
2018-10-11T00:11:32.524Z,15.69
2018-10-11T00:14:01.109Z,15.44
2018-10-11T00:16:29.720Z,15.25
2018-10-11T00:18:58.196Z,15.26
2018-10-11T00:21:26.692Z,15.53
2018-10-11T00:23:55.441Z,14.88
2018-10-11T00:26:24.000Z,15.20
2018-10-11T00:28:52.565Z,15.31
2018-10-11T00:31:21.281Z,15.32
2018-10-11T00:33:49.836Z,15.55
2018-10-11T00:36:18.602Z,15.63
2018-10-11T00:38:47.194Z,15.58
2018-10-11T00:41:15.739Z,15.76
2018-10-11T00:43:44.274Z,15.63
2018-10-11T00:46:12.869Z,15.84
2018-10-11T00:48:41.517Z,15.90
2018-10-11T00:51:10.134Z,16.22
2018-10-11T00:53:38.725Z,16.77
2018-10-11T00:56:08.736Z,16.69
2018-10-11T00:58:37.285Z,16.33
2018-10-11T01:01:05.904Z,16.71
2018-10-11T01:03:35.531Z,16.20
2018-10-11T01:06:04.197Z,15.83
2018-10-11T01:08:32.740Z,15.98
2018-10-11T01:11:01.221Z,16.59
2018-10-11T01:13:29.641Z,16.54
2018-10-11T01:15:58.192Z,16.64
2018-10-11T01:18:26.856Z,16.55
2018-10-11T01:20:55.607Z,16.47
2018-10-11T01:23:24.099Z,16.61
2018-10-11T01:25:52.633Z,16.24
2018-10-11T01:28:21.139Z,15.94
2018-10-11T01:30:54.862Z,16.78
2018-10-11T01:33:23.519Z,16.85
2018-10-11T01:35:52.228Z,17.00
2018-10-11T01:38:20.735Z,16.27
2018-10-11T01:40:49.217Z,16.58
2018-10-11T01:43:17.732Z,16.61
2018-10-11T01:45:46.297Z,16.51
2018-10-11T01:48:14.819Z,16.72
2018-10-11T01:50:43.338Z,16.75
2018-10-11T01:53:11.814Z,16.57
2018-10-11T01:55:40.224Z,16.54
2018-10-11T01:58:08.827Z,16.28
2018-10-11T02:00:37.400Z,16.34
2018-10-11T02:03:05.938Z,16.52
2018-10-11T02:05:35.156Z,16.26
2018-10-11T02:08:03.705Z,16.23
2018-10-11T02:10:32.272Z,15.92
2018-10-11T02:13:01.182Z,16.16
2018-10-11T02:15:29.744Z,15.77
2018-10-11T02:17:58.757Z,15.99
2018-10-11T02:20:27.908Z,15.98
2018-10-11T02:22:56.508Z,15.93
2018-10-11T02:25:25.035Z,16.16
2018-10-11T02:27:53.788Z,15.99
2018-10-11T02:30:22.274Z,15.84
2018-10-11T02:32:50.833Z,15.77
2018-10-11T02:35:19.315Z,15.56
2018-10-11T02:37:47.898Z,15.50
2018-10-11T02:40:16.360Z,15.54
2018-10-11T02:42:44.921Z,15.41
2018-10-11T02:45:13.408Z,15.55
2018-10-11T02:47:41.887Z,15.54
2018-10-11T02:50:10.606Z,15.43
2018-10-11T02:52:39.111Z,15.35
2018-10-11T02:55:07.616Z,15.41
2018-10-11T02:57:47.412Z,15.11
2018-10-11T03:00:29.713Z,15.36
2018-10-11T03:03:00.490Z,15.29
2018-10-11T03:05:29.037Z,14.77
2018-10-11T03:07:57.615Z,14.97
2018-10-11T03:10:33.127Z,15.06
2018-10-11T03:13:01.589Z,15.30
2018-10-11T03:15:30.050Z,15.14
2018-10-11T03:17:58.489Z,15.03
2018-10-11T03:20:27.271Z,15.04
2018-10-11T03:22:56.007Z,15.10
2018-10-11T03:25:24.698Z,14.90
2018-10-11T03:27:53.211Z,15.20
2018-10-11T03:30:26.461Z,15.14
2018-10-11T03:32:54.969Z,15.28
2018-10-11T03:35:23.434Z,15.19
2018-10-11T03:37:52.008Z,15.26
2018-10-11T03:40:20.540Z,15.14
2018-10-11T03:42:49.093Z,15.27
2018-10-11T03:45:17.569Z,15.30
2018-10-11T03:47:46.072Z,15.14
2018-10-11T03:50:14.565Z,15.21
2018-10-11T03:52:44.088Z,15.27
2018-10-11T03:55:12.609Z,15.12
2018-10-11T03:57:41.097Z,15.05
2018-10-11T04:00:09.637Z,15.06
2018-10-11T04:02:38.117Z,14.86
2018-10-11T04:05:06.601Z,14.98
2018-10-11T04:07:35.200Z,14.78
2018-10-11T04:10:03.692Z,14.83
2018-10-11T04:12:32.182Z,14.53
2018-10-11T04:15:00.673Z,14.77
2018-10-11T04:17:29.228Z,14.80
2018-10-11T04:19:57.975Z,14.63
2018-10-11T04:22:26.545Z,14.47
2018-10-11T04:24:55.185Z,14.47
2018-10-11T04:27:23.673Z,14.68
2018-10-11T04:29:52.203Z,14.59
2018-10-11T04:32:20.701Z,14.42
2018-10-11T04:34:49.185Z,14.31
2018-10-11T04:37:17.637Z,14.21
2018-10-11T04:39:46.133Z,14.15
2018-10-11T04:42:14.656Z,14.00
2018-10-11T04:44:43.224Z,14.19
2018-10-11T04:47:11.737Z,14.13
2018-10-11T04:49:40.281Z,14.15
2018-10-11T04:52:08.800Z,14.13
2018-10-11T04:54:37.396Z,13.95
2018-10-11T04:57:05.952Z,13.67
2018-10-11T04:59:35.572Z,14.14
2018-10-11T05:02:04.456Z,14.10
2018-10-11T05:04:33.017Z,14.48
2018-10-11T05:07:01.559Z,14.49
2018-10-11T05:09:30.118Z,14.69
2018-10-11T05:11:58.629Z,14.84
2018-10-11T05:14:27.263Z,14.79
2018-10-11T05:16:55.868Z,14.79
2018-10-11T05:19:24.754Z,14.65
2018-10-11T05:21:53.304Z,14.79
2018-10-11T05:24:21.879Z,14.81
2018-10-11T05:26:50.391Z,14.79
2018-10-11T05:29:19.067Z,14.57
2018-10-11T05:31:47.694Z,13.94
2018-10-11T05:34:16.201Z,15.00
2018-10-11T05:36:44.708Z,14.93
2018-10-11T05:39:13.177Z,15.40
2018-10-11T05:41:41.686Z,14.80
2018-10-11T05:44:10.051Z,15.04
2018-10-11T05:46:38.513Z,15.12
2018-10-11T05:49:07.015Z,15.58
2018-10-11T05:51:35.744Z,14.80
2018-10-11T05:54:04.838Z,15.17
2018-10-11T05:56:35.977Z,15.97
2018-10-11T05:59:04.745Z,15.71
2018-10-11T06:01:33.617Z,16.17
2018-10-11T06:04:02.918Z,15.94
2018-10-11T06:06:31.454Z,16.15
2018-10-11T06:09:00.221Z,16.16
2018-10-11T06:11:28.853Z,16.17
2018-10-11T06:13:57.352Z,15.97
2018-10-11T06:16:25.764Z,16.73
2018-10-11T06:18:54.201Z,17.00
2018-10-11T06:21:22.783Z,16.38
2018-10-11T06:23:51.348Z,16.52
2018-10-11T06:26:19.784Z,15.93
2018-10-11T06:28:48.215Z,16.53
2018-10-11T06:31:16.751Z,16.55
2018-10-11T06:33:45.500Z,16.44
2018-10-11T06:36:14.517Z,16.69
2018-10-11T06:38:43.019Z,16.98
2018-10-11T06:41:11.523Z,17.61
2018-10-11T06:43:40.221Z,18.08
2018-10-11T06:46:08.810Z,17.42
2018-10-11T06:48:37.427Z,18.79
2018-10-11T06:51:05.916Z,17.87
2018-10-11T06:53:34.478Z,17.46
2018-10-11T06:56:02.990Z,18.09
2018-10-11T06:58:31.750Z,18.18
2018-10-11T07:01:00.224Z,17.98
2018-10-11T07:03:28.757Z,18.70
2018-10-11T07:05:57.215Z,18.03
2018-10-11T07:08:25.693Z,17.94
2018-10-11T07:10:54.175Z,18.65
2018-10-11T07:13:22.724Z,18.24
2018-10-11T07:15:51.291Z,18.43
2018-10-11T07:18:19.834Z,18.56
2018-10-11T07:20:48.425Z,18.63
2018-10-11T07:23:17.022Z,18.54
2018-10-11T07:25:45.753Z,18.33
2018-10-11T07:28:14.580Z,18.35
2018-10-11T07:30:43.279Z,18.81
2018-10-11T07:33:11.974Z,18.78
2018-10-11T07:35:40.592Z,18.96
2018-10-11T07:38:09.288Z,19.01
2018-10-11T07:40:37.838Z,18.73
2018-10-11T07:43:06.442Z,18.49
2018-10-11T07:45:34.945Z,19.21
2018-10-11T07:48:03.456Z,19.35
2018-10-11T07:50:31.964Z,18.98
2018-10-11T07:53:00.553Z,19.55
2018-10-11T07:55:29.035Z,19.43
2018-10-11T07:57:57.548Z,19.34
2018-10-11T08:00:26.121Z,19.63
2018-10-11T08:02:54.734Z,18.89
2018-10-11T08:05:23.271Z,19.59
2018-10-11T08:07:51.835Z,19.35
2018-10-11T08:10:20.386Z,20.10
2018-10-11T08:12:48.833Z,19.03
2018-10-11T08:15:17.302Z,18.93
2018-10-11T08:17:46.106Z,19.01
2018-10-11T08:20:14.392Z,19.10
2018-10-11T08:22:42.788Z,19.43
2018-10-11T08:25:11.419Z,19.63
2018-10-11T08:27:39.813Z,20.13
2018-10-11T08:30:08.468Z,22.29
2018-10-11T08:32:37.144Z,23.74
2018-10-11T08:35:05.838Z,25.08
2018-10-11T08:37:34.524Z,24.68
2018-10-11T08:40:02.951Z,25.16
2018-10-11T08:42:31.449Z,26.43
2018-10-11T08:44:59.914Z,25.91
2018-10-11T08:47:28.403Z,25.97
2018-10-11T08:49:56.860Z,25.03
2018-10-11T08:52:25.355Z,24.94
2018-10-11T08:54:54.040Z,25.82
2018-10-11T08:57:22.933Z,26.69
2018-10-11T08:59:51.473Z,28.08
2018-10-11T09:02:20.084Z,26.64
2018-10-11T09:04:48.626Z,25.83
2018-10-11T09:07:17.226Z,25.08
2018-10-11T09:09:53.436Z,26.00
2018-10-11T09:12:14.609Z,24.94
2018-10-11T09:14:43.157Z,24.50
2018-10-11T09:17:11.615Z,25.40
2018-10-11T09:19:40.156Z,24.02
2018-10-11T09:22:08.576Z,23.95
2018-10-11T09:24:37.021Z,25.00
2018-10-11T09:27:05.493Z,25.99
2018-10-11T09:29:34.073Z,25.18
2018-10-11T09:32:02.593Z,24.44
2018-10-11T09:34:31.360Z,24.29
2018-10-11T09:37:00.039Z,25.61
2018-10-11T09:39:28.534Z,25.03
2018-10-11T09:41:57.048Z,26.16
2018-10-11T09:44:25.530Z,27.40
2018-10-11T09:46:54.158Z,27.86
2018-10-11T09:49:22.669Z,26.90
2018-10-11T09:51:51.230Z,26.15
2018-10-11T09:54:19.763Z,26.12
2018-10-11T09:57:25.639Z,26.04
2018-10-11T09:59:54.281Z,26.63
2018-10-11T10:02:23.709Z,27.53
2018-10-11T10:04:53.733Z,28.08
2018-10-11T10:07:22.429Z,28.14
2018-10-11T10:09:51.051Z,28.75
2018-10-11T10:12:19.674Z,29.16
2018-10-11T10:14:48.854Z,29.57
2018-10-11T10:17:17.408Z,30.68
2018-10-11T10:19:46.246Z,30.03
2018-10-11T10:22:14.745Z,31.27
2018-10-11T10:24:43.233Z,31.26
2018-10-11T10:27:11.853Z,30.70
2018-10-11T10:29:40.353Z,28.27
2018-10-11T10:32:08.996Z,27.91
2018-10-11T10:34:37.492Z,28.29
2018-10-11T10:37:06.180Z,26.70
2018-10-11T10:39:35.666Z,25.93
2018-10-11T10:42:08.210Z,24.92
2018-10-11T10:44:45.370Z,25.21
2018-10-11T10:47:16.720Z,24.39
2018-10-11T10:49:47.843Z,24.65
2018-10-11T10:52:23.111Z,24.84
2018-10-11T10:54:53.140Z,24.16
2018-10-11T10:57:22.346Z,24.33
2018-10-11T10:59:55.870Z,24.57
2018-10-11T11:02:24.659Z,24.60
2018-10-11T11:04:53.688Z,25.35
2018-10-11T11:07:24.930Z,25.18
2018-10-11T11:09:54.576Z,25.40
2018-10-11T11:12:23.238Z,25.23
2018-10-11T11:14:53.861Z,25.83
2018-10-11T11:17:22.525Z,26.10
2018-10-11T11:19:52.944Z,25.43
2018-10-11T11:22:21.687Z,25.79
2018-10-11T11:24:50.354Z,26.65
2018-10-11T11:27:19.157Z,28.41
2018-10-11T11:29:47.814Z,29.75
2018-10-11T11:32:19.561Z,30.91
2018-10-11T11:34:48.543Z,30.86
2018-10-11T11:37:20.410Z,30.70
2018-10-11T11:39:50.231Z,32.01
2018-10-11T11:42:20.548Z,32.26
2018-10-11T11:44:50.435Z,32.61
2018-10-11T11:47:21.245Z,33.19
2018-10-11T11:49:51.847Z,33.16
2018-10-11T11:52:24.456Z,33.31
2018-10-11T11:54:53.130Z,33.15
2018-10-11T11:57:21.539Z,32.73
2018-10-11T11:59:52.151Z,33.47
2018-10-11T12:02:21.863Z,33.78
2018-10-11T12:04:52.656Z,34.01
2018-10-11T12:07:21.413Z,33.82
2018-10-11T12:09:50.458Z,33.55
2018-10-11T12:13:08.695Z,34.28
2018-10-11T12:15:38.415Z,34.28
2018-10-11T12:18:07.669Z,33.92
2018-10-11T12:20:37.354Z,33.75
2018-10-11T12:23:06.929Z,33.00
2018-10-11T12:25:37.354Z,33.24
2018-10-11T12:28:05.942Z,32.51
2018-10-11T12:30:34.761Z,31.93
2018-10-11T12:33:04.135Z,32.52
2018-10-11T12:35:32.770Z,32.70
2018-10-11T12:38:03.556Z,31.92
2018-10-11T12:40:35.990Z,30.99
2018-10-11T12:43:04.713Z,30.74
2018-10-11T12:45:41.562Z,30.33
2018-10-11T12:48:11.564Z,29.08
2018-10-11T12:50:40.624Z,28.56
2018-10-11T12:53:11.087Z,27.23
2018-10-11T12:55:43.881Z,26.50
2018-10-11T12:58:12.551Z,26.47
2018-10-11T13:00:41.537Z,26.80
2018-10-11T13:03:16.469Z,27.09
2018-10-11T13:05:45.190Z,26.99
2018-10-11T13:08:15.548Z,26.35
2018-10-11T13:10:45.500Z,26.15
2018-10-11T13:13:17.201Z,26.68
2018-10-11T13:15:46.335Z,26.57
2018-10-11T13:18:15.788Z,26.10
2018-10-11T13:20:44.654Z,25.66
2018-10-11T13:23:18.527Z,25.39
2018-10-11T13:25:46.793Z,24.42
2018-10-11T13:28:16.492Z,24.96
2018-10-11T13:30:46.799Z,25.26
2018-10-11T13:33:30.940Z,24.42
2018-10-11T13:36:01.645Z,25.12
2018-10-11T13:38:32.760Z,25.13
2018-10-11T13:41:03.702Z,24.66
2018-10-11T13:43:31.540Z,24.89
2018-10-11T13:46:02.994Z,24.68
2018-10-11T13:48:32.510Z,24.53
2018-10-11T13:51:02.348Z,24.86
2018-10-11T13:53:31.136Z,24.55
2018-10-11T13:56:01.377Z,24.54
2018-10-11T13:58:30.152Z,24.87
2018-10-11T14:00:58.843Z,24.85
2018-10-11T14:03:27.475Z,24.37
2018-10-11T14:05:57.166Z,24.13
2018-10-11T14:08:27.448Z,24.14
2018-10-11T14:10:56.822Z,24.40
2018-10-11T14:13:29.030Z,24.11
2018-10-11T14:15:57.886Z,24.27
2018-10-11T14:18:29.063Z,23.84
2018-10-11T14:21:00.093Z,24.58
2018-10-11T14:23:29.956Z,24.15
2018-10-11T14:25:58.335Z,23.93
2018-10-11T14:28:29.079Z,24.67
2018-10-11T14:30:57.686Z,24.29
2018-10-11T14:33:28.357Z,23.88
2018-10-11T14:35:57.553Z,24.60
2018-10-11T14:38:30.508Z,24.38
2018-10-11T14:41:00.144Z,24.09
2018-10-11T14:43:33.162Z,24.48
2018-10-11T14:46:02.814Z,24.77
2018-10-11T14:48:32.433Z,24.79
2018-10-11T14:51:01.603Z,24.55
2018-10-11T14:53:30.317Z,24.29
2018-10-11T14:56:00.478Z,24.89
2018-10-11T14:58:31.628Z,24.42
2018-10-11T15:01:00.510Z,25.26
2018-10-11T15:03:29.701Z,24.92
2018-10-11T15:05:58.438Z,24.64
2018-10-11T15:08:28.833Z,24.78
2018-10-11T15:10:59.083Z,24.18
2018-10-11T15:13:28.541Z,24.61
2018-10-11T15:15:57.277Z,24.42
2018-10-11T15:18:25.825Z,24.19
2018-10-11T15:20:55.325Z,24.07
2018-10-11T15:23:24.830Z,23.84
2018-10-11T15:25:54.007Z,23.95
2018-10-11T15:28:22.534Z,23.70
2018-10-11T15:30:52.212Z,23.61
2018-10-11T15:33:21.726Z,23.24
2018-10-11T15:35:52.261Z,23.44
2018-10-11T15:38:20.990Z,23.23
2018-10-11T15:40:51.859Z,22.48
2018-10-11T15:43:20.390Z,23.13
2018-10-11T15:45:50.784Z,23.08
2018-10-11T15:48:21.036Z,22.93
2018-10-11T15:50:49.704Z,23.21
2018-10-11T15:53:18.469Z,23.24
2018-10-11T15:55:49.752Z,23.03
2018-10-11T15:58:18.872Z,22.74
2018-10-11T16:00:47.354Z,22.65
2018-10-11T16:03:15.963Z,22.02
2018-10-11T16:05:50.403Z,21.97
2018-10-11T16:08:19.148Z,22.11
2018-10-11T16:10:47.785Z,21.77
2018-10-11T16:13:16.820Z,22.29
2018-10-11T16:15:45.343Z,21.94
2018-10-11T16:18:14.685Z,21.87
2018-10-11T16:20:43.203Z,21.24
2018-10-11T16:23:13.109Z,21.45
2018-10-11T16:25:42.269Z,21.89
2018-10-11T16:28:10.900Z,21.80
2018-10-11T16:30:41.244Z,21.50
2018-10-11T16:33:10.936Z,21.70
2018-10-11T16:35:39.441Z,21.99
2018-10-11T16:38:09.235Z,21.87
2018-10-11T16:40:38.781Z,22.07
2018-10-11T16:43:07.639Z,20.92
2018-10-11T16:45:36.172Z,21.84
2018-10-11T16:48:06.586Z,22.08
2018-10-11T16:50:34.986Z,21.58
2018-10-11T16:53:05.512Z,21.42
2018-10-11T16:55:36.815Z,21.56
2018-10-11T16:58:06.256Z,21.41
2018-10-11T17:00:38.456Z,21.49
2018-10-11T17:03:07.679Z,21.07
2018-10-11T17:05:36.339Z,21.30
2018-10-11T17:08:05.682Z,21.02
2018-10-11T17:10:35.873Z,20.68
2018-10-11T17:13:04.324Z,21.37
2018-10-11T17:15:32.840Z,20.58
2018-10-11T17:18:02.154Z,20.86
2018-10-11T17:20:30.729Z,20.80
2018-10-11T17:22:59.237Z,20.74
2018-10-11T17:25:27.772Z,21.28
2018-10-11T17:28:01.257Z,21.60
2018-10-11T17:30:32.048Z,21.13
2018-10-11T17:33:00.880Z,21.02
2018-10-11T17:35:30.406Z,21.01
2018-10-11T17:37:59.245Z,21.13
2018-10-11T17:40:29.400Z,21.18
2018-10-11T17:42:59.773Z,21.23
2018-10-11T17:45:30.171Z,21.52
2018-10-11T17:47:58.836Z,21.37
2018-10-11T17:50:27.475Z,21.61
2018-10-11T17:53:01.579Z,21.16
2018-10-11T17:55:30.991Z,20.95
2018-10-11T17:58:00.033Z,21.13
2018-10-11T18:00:30.154Z,20.96
2018-10-11T18:02:59.423Z,21.54
2018-10-11T18:05:28.076Z,20.82
2018-10-11T18:07:56.642Z,21.48
2018-10-11T18:10:26.512Z,21.05
2018-10-11T18:12:56.233Z,20.59
2018-10-11T18:15:26.275Z,20.65
2018-10-11T18:17:54.851Z,21.01
2018-10-11T18:20:24.635Z,21.41
2018-10-11T18:22:54.507Z,21.18
2018-10-11T18:25:24.294Z,21.07
2018-10-11T18:27:52.961Z,21.41
2018-10-11T18:30:21.945Z,20.96
2018-10-11T18:32:50.933Z,20.97
2018-10-11T18:35:19.851Z,20.58
2018-10-11T18:37:49.791Z,20.58
2018-10-11T18:40:21.183Z,20.98
2018-10-11T18:42:49.810Z,21.17
2018-10-11T18:45:19.729Z,21.31
2018-10-11T18:47:51.667Z,21.22
2018-10-11T18:50:21.554Z,21.35
2018-10-11T18:52:54.416Z,21.43
2018-10-11T18:55:27.851Z,20.91
2018-10-11T18:57:56.825Z,21.39
2018-10-11T19:00:25.793Z,20.85
2018-10-11T19:02:54.642Z,21.61
2018-10-11T19:05:23.197Z,21.15
2018-10-11T19:07:51.986Z,20.93
2018-10-11T19:10:20.649Z,20.95
2018-10-11T19:12:50.472Z,21.15
2018-10-11T19:15:19.101Z,20.99
2018-10-11T19:17:52.966Z,21.04
2018-10-11T19:20:21.869Z,21.33
2018-10-11T19:22:52.289Z,21.07
2018-10-11T19:25:20.900Z,21.25
2018-10-11T19:27:50.278Z,20.84
2018-10-11T19:30:20.005Z,21.25
2018-10-11T19:32:48.712Z,21.23
2018-10-11T19:35:19.244Z,20.72
2018-10-11T19:37:48.954Z,20.93
2018-10-11T19:40:18.902Z,20.85
2018-10-11T19:42:51.570Z,21.05
2018-10-11T19:45:20.288Z,20.94
2018-10-11T19:47:50.199Z,20.79
2018-10-11T19:50:18.962Z,20.31
2018-10-11T19:52:48.462Z,20.74
2018-10-11T19:55:17.098Z,20.14
2018-10-11T19:57:45.703Z,20.32
2018-10-11T20:00:14.489Z,20.73
2018-10-11T20:02:43.124Z,20.86
2018-10-11T20:05:11.666Z,20.80
2018-10-11T20:07:40.416Z,20.87
2018-10-11T20:10:09.634Z,20.75
2018-10-11T20:12:38.368Z,21.05
2018-10-11T20:15:07.152Z,20.81
2018-10-11T20:17:35.774Z,20.86
2018-10-11T20:20:05.243Z,20.59
2018-10-11T20:22:35.727Z,20.71
2018-10-11T20:25:04.867Z,21.13
2018-10-11T20:27:33.554Z,20.63
2018-10-11T20:30:02.047Z,20.48
2018-10-11T20:32:31.042Z,20.75
2018-10-11T20:34:59.680Z,20.29
2018-10-11T20:37:28.357Z,20.72
2018-10-11T20:39:57.027Z,20.36
2018-10-11T20:42:26.064Z,20.13
2018-10-11T20:44:55.841Z,20.79
2018-10-11T20:47:24.305Z,20.55
2018-10-11T20:49:52.918Z,20.78
2018-10-11T20:52:21.421Z,20.41
2018-10-11T20:54:51.211Z,20.27
2018-10-11T20:57:19.894Z,20.48
2018-10-11T20:59:52.523Z,20.18
2018-10-11T21:02:21.002Z,19.90
2018-10-11T21:04:50.834Z,20.08
2018-10-11T21:07:19.392Z,20.35
2018-10-11T21:09:47.878Z,20.44
2018-10-11T21:12:16.278Z,20.36
2018-10-11T21:14:46.844Z,20.21
2018-10-11T21:17:15.735Z,20.27
2018-10-11T21:19:44.320Z,20.04
2018-10-11T21:22:12.869Z,20.52
2018-10-11T21:24:41.495Z,20.93
2018-10-11T21:27:10.107Z,20.53
2018-10-11T21:29:38.671Z,20.35
2018-10-11T21:32:07.653Z,20.34
2018-10-11T21:34:36.097Z,20.70
2018-10-11T21:37:04.753Z,20.43
2018-10-11T21:39:33.347Z,20.37
2018-10-11T21:42:01.888Z,20.51
2018-10-11T21:44:31.005Z,20.41
2018-10-11T21:46:59.946Z,20.41
2018-10-11T21:49:32.579Z,20.69
2018-10-11T21:52:01.189Z,20.67
2018-10-11T21:54:29.692Z,20.98
2018-10-11T21:56:58.237Z,20.77
2018-10-11T21:59:26.825Z,20.68
2018-10-11T22:01:56.240Z,20.64
2018-10-11T22:04:24.790Z,20.60
2018-10-11T22:06:53.483Z,20.56
2018-10-11T22:09:22.056Z,20.79
2018-10-11T22:11:50.533Z,20.63
2018-10-11T22:14:18.973Z,20.99
2018-10-11T22:16:47.486Z,20.97
2018-10-11T22:19:17.989Z,21.01
2018-10-11T22:21:46.493Z,20.93
2018-10-11T22:24:15.018Z,21.13
2018-10-11T22:26:43.506Z,21.20
2018-10-11T22:29:12.117Z,21.24
2018-10-11T22:31:40.548Z,21.24
2018-10-11T22:34:09.067Z,21.43
2018-10-11T22:36:37.823Z,20.77
2018-10-11T22:39:08.466Z,21.04
2018-10-11T22:41:38.135Z,20.81
2018-10-11T22:44:07.001Z,20.70
2018-10-11T22:46:35.519Z,20.66
2018-10-11T22:49:05.198Z,20.48
2018-10-11T22:51:34.027Z,20.30
2018-10-11T22:54:02.997Z,20.03
2018-10-11T22:56:31.526Z,20.12
2018-10-11T22:59:00.319Z,20.04
2018-10-11T23:01:29.955Z,20.17
2018-10-11T23:03:58.595Z,20.24
2018-10-11T23:06:27.169Z,20.11
2018-10-11T23:08:55.844Z,20.52
2018-10-11T23:11:25.788Z,20.31
2018-10-11T23:13:54.461Z,20.19
2018-10-11T23:16:24.282Z,20.18
2018-10-11T23:18:52.878Z,20.22
2018-10-11T23:21:22.489Z,20.24
2018-10-11T23:23:52.727Z,20.21
2018-10-11T23:26:22.465Z,20.12
2018-10-11T23:28:50.982Z,20.35
2018-10-11T23:31:20.627Z,19.90
2018-10-11T23:33:49.195Z,20.40
2018-10-11T23:36:17.689Z,20.34
2018-10-11T23:38:46.897Z,20.17
2018-10-11T23:41:15.465Z,19.96
2018-10-11T23:43:45.556Z,19.68
2018-10-11T23:46:15.108Z,19.59
2018-10-11T23:48:43.715Z,19.47
2018-10-11T23:51:12.344Z,19.90
2018-10-11T23:53:40.789Z,20.27
2018-10-11T23:56:10.285Z,20.55
2018-10-11T23:58:38.866Z,20.27
